createdAt,value
2022-08-29T00:04:39.644Z,5.78
2022-08-29T00:07:19.662Z,4.10
2022-08-29T00:10:06.499Z,4.25
2022-08-29T00:12:46.655Z,5.72
2022-08-29T00:15:35.131Z,4.57
2022-08-29T00:18:26.627Z,4.28
2022-08-29T00:21:13.500Z,4.57
2022-08-29T00:24:00.505Z,4.32
2022-08-29T00:26:41.051Z,4.85
2022-08-29T00:29:27.503Z,5.10
2022-08-29T00:32:08.227Z,4.85
2022-08-29T00:34:54.530Z,4.53
2022-08-29T00:37:41.523Z,4.70
2022-08-29T00:40:25.672Z,6.25
2022-08-29T00:46:02.669Z,4.93
2022-08-29T00:48:53.491Z,4.57
2022-08-29T00:51:41.520Z,4.65
2022-08-29T00:54:22.711Z,4.80
2022-08-29T00:57:10.522Z,5.43
2022-08-29T00:59:51.967Z,4.82
2022-08-29T01:02:40.441Z,4.47
2022-08-29T01:05:22.505Z,4.10
2022-08-29T01:08:09.482Z,6.78
2022-08-29T01:11:09.842Z,5.60
2022-08-29T01:13:58.496Z,4.75
2022-08-29T01:16:39.361Z,5.20
2022-08-29T01:19:58.466Z,5.53
2022-08-29T01:23:01.044Z,5.18
2022-08-29T01:25:52.493Z,5.13
2022-08-29T01:28:49.454Z,6.22
2022-08-29T01:31:57.481Z,4.68
2022-08-29T01:34:44.467Z,4.38
2022-08-29T01:37:37.435Z,5.10
2022-08-29T01:40:25.472Z,4.95
2022-08-29T01:43:12.494Z,4.25
2022-08-29T01:45:52.595Z,5.05
2022-08-29T01:48:39.405Z,5.63
2022-08-29T01:51:20.590Z,5.60
2022-08-29T01:54:07.416Z,5.43
2022-08-29T01:56:52.161Z,5.22
2022-08-29T01:59:39.419Z,5.43
2022-08-29T02:02:36.434Z,4.95
2022-08-29T02:05:18.052Z,4.63
2022-08-29T02:08:04.422Z,6.00
2022-08-29T02:10:51.403Z,7.47
2022-08-29T02:13:38.412Z,6.53
2022-08-29T02:16:25.433Z,6.40
2022-08-29T02:19:06.514Z,5.43
2022-08-29T02:21:53.423Z,6.00
2022-08-29T02:24:33.596Z,7.13
2022-08-29T02:27:20.377Z,6.00
2022-08-29T02:30:14.418Z,5.78
2022-08-29T02:33:01.365Z,6.93
2022-08-29T02:35:51.385Z,6.45
2022-08-29T02:38:32.407Z,6.22
2022-08-29T02:41:14.362Z,6.35
2022-08-29T02:44:01.356Z,5.45
2022-08-29T02:46:48.394Z,6.88
2022-08-29T02:49:28.499Z,6.97
2022-08-29T02:52:17.387Z,5.40
2022-08-29T02:54:57.489Z,6.60
2022-08-29T02:57:44.388Z,7.18
2022-08-29T03:00:28.568Z,6.18
2022-08-29T03:03:15.360Z,5.60
2022-08-29T03:05:56.749Z,7.13
2022-08-29T03:26:10.447Z,6.90
2022-08-29T03:28:57.532Z,6.38
2022-08-29T03:31:38.511Z,6.97
2022-08-29T03:34:25.459Z,5.25
2022-08-29T03:37:06.442Z,8.18
2022-08-29T03:39:46.759Z,8.07
2022-08-29T03:42:33.419Z,8.40
2022-08-29T03:45:18.670Z,7.05
2022-08-29T03:48:05.439Z,7.60
2022-08-29T03:50:56.302Z,6.82
2022-08-29T03:53:43.460Z,7.32
2022-08-29T03:56:31.445Z,37.80
2022-08-29T03:59:13.557Z,8.50
2022-08-29T04:02:00.504Z,7.55
2022-08-29T04:04:59.597Z,7.65
2022-08-29T04:07:51.418Z,6.80
2022-08-29T04:10:38.108Z,7.30
2022-08-29T04:13:26.400Z,7.65
2022-08-29T04:16:22.645Z,6.63
2022-08-29T04:19:02.409Z,7.30
2022-08-29T04:21:44.857Z,7.65
2022-08-29T04:24:31.385Z,7.10
2022-08-29T04:27:18.418Z,10.27
2022-08-29T04:29:58.543Z,7.57
2022-08-29T04:32:45.426Z,7.60
2022-08-29T04:35:32.381Z,7.47
2022-08-29T04:38:12.918Z,6.70
2022-08-29T04:41:00.381Z,7.63
2022-08-29T04:43:46.087Z,9.77
2022-08-29T04:46:32.437Z,7.13
2022-08-29T04:49:19.470Z,7.63
2022-08-29T04:52:00.474Z,10.20
2022-08-29T04:54:47.391Z,8.52
2022-08-29T04:57:27.555Z,8.52
2022-08-29T05:00:21.385Z,7.18
2022-08-29T05:05:48.370Z,7.97
2022-08-29T05:08:28.460Z,7.30
2022-08-29T05:11:23.328Z,7.63
2022-08-29T05:14:04.495Z,7.38
2022-08-29T05:16:51.313Z,6.97
2022-08-29T05:19:34.688Z,9.10
2022-08-29T05:22:25.325Z,8.23
2022-08-29T05:25:19.389Z,7.57
2022-08-29T05:27:59.966Z,8.70
2022-08-29T05:30:46.399Z,8.65
2022-08-29T05:33:34.330Z,9.52
2022-08-29T05:36:21.312Z,9.27
2022-08-29T05:39:08.348Z,8.80
2022-08-29T05:42:00.347Z,9.45
2022-08-29T05:44:47.362Z,9.82
2022-08-29T05:47:35.318Z,8.65
2022-08-29T05:50:23.326Z,9.82
2022-08-29T05:53:10.319Z,9.82
2022-08-29T05:55:57.278Z,9.20
2022-08-29T05:58:44.334Z,9.88
2022-08-29T06:01:28.147Z,11.98
2022-08-29T06:04:15.319Z,10.00
2022-08-29T06:06:55.736Z,11.48
2022-08-29T06:09:42.278Z,9.50
2022-08-29T06:12:24.287Z,11.27
2022-08-29T06:15:11.282Z,10.80
2022-08-29T06:17:58.306Z,19.00
2022-08-29T06:20:38.520Z,16.35
2022-08-29T06:23:26.670Z,15.07
2022-08-29T06:26:23.292Z,9.73
2022-08-29T06:29:13.284Z,10.07
2022-08-29T06:31:53.431Z,11.18
2022-08-29T06:34:40.274Z,11.25
2022-08-29T06:37:20.360Z,10.23
2022-08-29T06:40:07.592Z,11.15
2022-08-29T06:42:47.443Z,13.35
2022-08-29T06:45:34.290Z,13.10
2022-08-29T06:48:15.465Z,10.55
2022-08-29T06:51:02.246Z,11.05
2022-08-29T06:53:49.298Z,10.25
2022-08-29T06:56:30.427Z,10.88
2022-08-29T06:59:18.268Z,10.30
2022-08-29T07:01:58.754Z,12.25
2022-08-29T07:04:45.252Z,10.93
2022-08-29T07:07:25.705Z,10.90
2022-08-29T07:10:12.213Z,10.07
2022-08-29T07:12:53.281Z,9.52
2022-08-29T07:15:40.369Z,9.50
2022-08-29T07:18:21.318Z,23.45
2022-08-29T07:21:08.243Z,26.63
2022-08-29T07:23:50.254Z,16.63
2022-08-29T07:26:48.273Z,13.82
2022-08-29T07:29:35.483Z,13.02
2022-08-29T07:32:15.238Z,9.15
2022-08-29T07:34:56.401Z,8.65
2022-08-29T07:37:45.727Z,7.20
2022-08-29T07:40:36.296Z,7.33
2022-08-29T07:43:27.775Z,6.53
2022-08-29T07:46:17.234Z,6.25
2022-08-29T07:48:57.318Z,5.47
2022-08-29T07:51:45.228Z,5.47
2022-08-29T07:54:25.886Z,6.65
2022-08-29T07:57:12.207Z,5.55
2022-08-29T07:59:52.265Z,4.97
2022-08-29T08:02:39.293Z,5.85
2022-08-29T08:05:26.198Z,6.00
2022-08-29T08:08:15.062Z,6.07
2022-08-29T08:11:02.201Z,5.43
2022-08-29T08:13:49.166Z,5.78
2022-08-29T08:16:31.486Z,5.90
2022-08-29T08:19:20.133Z,7.57
2022-08-29T08:22:00.789Z,5.43
2022-08-29T08:24:47.162Z,5.15
2022-08-29T08:27:27.290Z,5.50
2022-08-29T08:30:15.161Z,5.63
2022-08-29T08:33:02.164Z,7.07
2022-08-29T08:35:49.140Z,6.00
2022-08-29T08:38:36.154Z,5.45
2022-08-29T08:41:27.213Z,5.82
2022-08-29T08:44:12.353Z,6.65
2022-08-29T08:47:05.163Z,5.40
2022-08-29T08:50:05.126Z,6.53
2022-08-29T08:53:01.152Z,5.55
2022-08-29T08:55:57.262Z,6.28
2022-08-29T08:59:02.350Z,6.13
2022-08-29T09:01:55.300Z,7.38
2022-08-29T09:05:13.374Z,6.80
2022-08-29T09:08:06.375Z,5.93
2022-08-29T09:10:58.910Z,4.95
2022-08-29T09:14:10.135Z,6.63
2022-08-29T09:16:54.840Z,5.82
2022-08-29T09:19:42.107Z,5.80
2022-08-29T09:22:36.159Z,5.80
2022-08-29T09:25:28.175Z,5.78
2022-08-29T09:28:09.466Z,6.97
2022-08-29T09:31:16.751Z,6.50
2022-08-29T09:34:11.970Z,6.90
2022-08-29T09:36:55.827Z,5.43
2022-08-29T09:39:49.983Z,5.60
2022-08-29T09:42:40.224Z,6.65
2022-08-29T09:45:34.173Z,5.78
2022-08-29T09:48:21.306Z,6.30
2022-08-29T09:51:40.692Z,6.50
2022-08-29T09:54:31.979Z,6.03
2022-08-29T09:57:25.555Z,6.40
2022-08-29T10:00:27.351Z,5.88
2022-08-29T10:03:26.577Z,5.78
2022-08-29T10:06:14.466Z,5.97
2022-08-29T10:09:09.064Z,6.55
2022-08-29T10:12:14.430Z,5.93
2022-08-29T10:15:07.262Z,5.90
2022-08-29T10:18:51.371Z,6.00
2022-08-29T10:22:12.094Z,6.20
2022-08-29T10:25:12.237Z,5.55
2022-08-29T10:28:13.114Z,5.93
2022-08-29T10:31:37.135Z,6.70
2022-08-29T10:34:32.745Z,5.68
2022-08-29T10:37:37.633Z,6.18
2022-08-29T10:40:37.005Z,6.93
2022-08-29T10:43:30.519Z,5.45
2022-08-29T10:46:33.150Z,6.13
2022-08-29T10:49:49.018Z,7.20
2022-08-29T10:52:54.059Z,6.38
2022-08-29T10:55:37.127Z,6.50
2022-08-29T10:58:48.051Z,5.75
2022-08-29T11:01:48.976Z,6.40
2022-08-29T11:04:52.025Z,6.25
2022-08-29T11:08:04.008Z,6.13
2022-08-29T11:10:49.930Z,5.03
2022-08-29T11:13:47.005Z,6.80
2022-08-29T11:16:48.047Z,6.85
2022-08-29T11:19:53.026Z,7.13
2022-08-29T11:22:48.485Z,6.57
2022-08-29T11:25:36.010Z,6.45
2022-08-29T11:28:53.499Z,6.50
2022-08-29T11:31:55.085Z,7.50
2022-08-29T11:35:20.020Z,6.72
2022-08-29T11:38:24.107Z,7.10
2022-08-29T11:41:35.008Z,7.30
2022-08-29T11:44:57.411Z,7.15
2022-08-29T11:48:04.968Z,8.38
2022-08-29T11:50:53.006Z,7.05
2022-08-29T11:53:37.637Z,7.65
2022-08-29T11:56:28.190Z,6.70
2022-08-29T11:59:08.371Z,6.93
2022-08-29T12:01:55.154Z,7.30
2022-08-29T12:05:23.963Z,6.93
2022-08-29T12:08:33.607Z,7.25
2022-08-29T12:11:21.964Z,7.38
2022-08-29T12:14:06.331Z,7.53
2022-08-29T12:16:57.939Z,7.05
2022-08-29T12:20:17.123Z,6.82
2022-08-29T12:23:24.981Z,8.85
2022-08-29T12:26:32.233Z,8.93
2022-08-29T12:29:11.942Z,7.45
2022-08-29T12:32:23.080Z,8.13
2022-08-29T12:35:45.913Z,7.88
2022-08-29T12:38:56.910Z,7.82
2022-08-29T12:41:52.923Z,7.30
2022-08-29T12:44:43.871Z,8.30
2022-08-29T12:47:46.177Z,7.13
2022-08-29T12:50:35.810Z,7.65
2022-08-29T12:53:43.910Z,7.53
2022-08-29T12:56:32.898Z,6.88
2022-08-29T12:59:19.914Z,7.38
2022-08-29T13:02:00.944Z,6.32
2022-08-29T13:04:47.923Z,6.20
2022-08-29T13:07:29.696Z,6.47
2022-08-29T13:10:16.929Z,6.18
2022-08-29T13:13:09.079Z,6.13
2022-08-29T13:15:55.937Z,5.63
2022-08-29T13:19:07.269Z,6.10
2022-08-29T13:21:49.931Z,5.63
2022-08-29T13:24:36.869Z,5.10
2022-08-29T13:27:27.014Z,5.05
2022-08-29T13:30:07.871Z,4.85
2022-08-29T13:32:50.118Z,4.78
2022-08-29T13:35:45.995Z,3.88
2022-08-29T13:38:36.890Z,5.22
2022-08-29T13:41:23.895Z,5.40
2022-08-29T13:44:10.936Z,5.28
2022-08-29T13:46:51.561Z,5.43
2022-08-29T13:49:40.839Z,5.50
2022-08-29T13:52:31.601Z,5.00
2022-08-29T13:55:19.238Z,5.25
2022-08-29T13:58:01.829Z,4.70
2022-08-29T14:00:42.422Z,4.33
2022-08-29T14:03:30.026Z,4.90
2022-08-29T14:06:17.057Z,4.55
2022-08-29T14:08:57.871Z,4.53
2022-08-29T14:11:44.842Z,5.35
2022-08-29T14:14:25.039Z,6.38
2022-08-29T14:17:14.312Z,4.88
2022-08-29T14:20:04.885Z,5.63
2022-08-29T14:22:52.955Z,6.13
2022-08-29T14:25:32.834Z,5.15
2022-08-29T14:28:26.883Z,6.38
2022-08-29T14:31:07.411Z,5.28
2022-08-29T14:33:53.819Z,5.15
2022-08-29T14:36:34.979Z,5.70
2022-08-29T14:39:26.572Z,6.67
2022-08-29T14:42:07.353Z,4.85
2022-08-29T14:44:53.783Z,4.93
2022-08-29T14:47:40.790Z,4.50
2022-08-29T14:50:20.929Z,5.60
2022-08-29T14:53:07.929Z,5.18
2022-08-29T14:55:47.918Z,5.25
2022-08-29T14:58:34.873Z,6.00
2022-08-29T15:01:21.952Z,5.07
2022-08-29T15:04:08.897Z,5.90
2022-08-29T15:06:48.995Z,4.32
2022-08-29T15:09:35.792Z,4.65
2022-08-29T15:28:02.182Z,6.00
2022-08-29T15:30:49.274Z,5.22
2022-08-29T15:33:37.131Z,5.53
2022-08-29T15:36:24.184Z,5.90
2022-08-29T15:39:05.778Z,5.65
2022-08-29T15:41:52.311Z,5.00
2022-08-29T15:44:40.781Z,4.97
2022-08-29T15:47:27.326Z,5.78
2022-08-29T15:50:08.156Z,5.93
2022-08-29T15:52:48.510Z,6.00
2022-08-29T15:55:35.123Z,6.75
2022-08-29T15:58:22.130Z,6.10
2022-08-29T16:01:02.397Z,6.38
2022-08-29T16:03:50.301Z,5.82
2022-08-29T16:06:30.309Z,6.28
2022-08-29T16:09:18.134Z,6.50
2022-08-29T16:12:01.442Z,5.68
2022-08-29T16:15:06.582Z,6.83
2022-08-29T16:17:55.095Z,6.22
2022-08-29T16:20:37.948Z,5.95
2022-08-29T16:23:25.096Z,7.07
2022-08-29T16:26:12.074Z,8.07
2022-08-29T16:28:53.475Z,6.90
2022-08-29T16:31:41.179Z,7.28
2022-08-29T16:34:28.119Z,7.60
2022-08-29T16:37:08.942Z,7.15
2022-08-29T16:39:56.116Z,7.47
2022-08-29T16:42:55.655Z,7.15
2022-08-29T16:45:37.810Z,6.65
2022-08-29T16:48:25.396Z,6.00
2022-08-29T16:51:12.152Z,7.00
2022-08-29T16:54:00.597Z,6.85
2022-08-29T16:56:47.059Z,7.00
2022-08-29T16:59:34.052Z,6.75
2022-08-29T17:02:17.469Z,6.57
2022-08-29T17:05:04.014Z,7.13
2022-08-29T17:07:44.133Z,7.20
2022-08-29T17:10:31.131Z,8.43
2022-08-29T17:13:11.113Z,7.03
2022-08-29T17:15:58.143Z,7.47
2022-08-29T17:18:39.362Z,7.13
2022-08-29T17:21:26.040Z,7.32
2022-08-29T17:24:09.334Z,7.40
2022-08-29T17:26:56.056Z,8.60
2022-08-29T17:29:37.259Z,8.25
2022-08-29T17:32:24.023Z,8.27
2022-08-29T17:35:04.174Z,7.53
2022-08-29T17:37:51.034Z,6.95
2022-08-29T17:40:31.248Z,7.95
2022-08-29T17:43:19.998Z,7.50
2022-08-29T17:46:07.098Z,8.30
2022-08-29T17:48:55.053Z,9.00
2022-08-29T17:51:42.017Z,8.50
2022-08-29T17:54:24.200Z,8.95
2022-08-29T17:57:12.995Z,7.57
2022-08-29T17:59:53.640Z,9.27
2022-08-29T18:02:41.057Z,10.07
2022-08-29T18:05:27.973Z,9.68
2022-08-29T18:08:15.026Z,9.50
2022-08-29T18:11:01.979Z,8.35
2022-08-29T18:13:42.176Z,9.00
2022-08-29T18:16:29.056Z,8.43
2022-08-29T18:19:10.297Z,7.70
2022-08-29T18:21:57.973Z,6.60
2022-08-29T18:24:38.052Z,6.88
2022-08-29T18:27:24.985Z,7.80
2022-08-29T18:30:13.951Z,9.10
2022-08-29T18:33:01.020Z,8.35
2022-08-29T18:35:41.309Z,8.75
2022-08-29T18:38:28.015Z,8.43
2022-08-29T18:41:15.976Z,6.90
2022-08-29T18:43:56.697Z,7.13
2022-08-29T18:46:47.900Z,6.55
2022-08-29T18:49:46.779Z,6.88
2022-08-29T18:52:33.915Z,7.05
2022-08-29T18:55:20.956Z,7.63
2022-08-29T18:58:01.116Z,7.25
2022-08-29T19:00:49.077Z,6.50
2022-08-29T19:03:29.014Z,8.63
2022-08-29T19:06:16.962Z,12.68
2022-08-29T19:08:57.307Z,8.93
2022-08-29T19:11:43.934Z,8.43
2022-08-29T19:14:24.134Z,8.57
2022-08-29T19:17:10.908Z,9.55
2022-08-29T19:20:10.194Z,6.28
2022-08-29T19:22:56.897Z,6.68
2022-08-29T19:25:37.017Z,7.30
2022-08-29T19:28:25.892Z,5.80
2022-08-29T19:31:06.575Z,5.88
2022-08-29T19:33:52.893Z,7.05
2022-08-29T19:36:33.017Z,6.55
2022-08-29T19:39:19.875Z,6.38
2022-08-29T19:42:06.889Z,6.88
2022-08-29T19:44:56.453Z,7.05
2022-08-29T19:47:42.837Z,5.78
2022-08-29T19:50:24.859Z,6.97
2022-08-29T19:53:12.887Z,5.43
2022-08-29T19:55:53.517Z,7.68
2022-08-29T19:58:39.973Z,6.20
2022-08-29T20:01:20.427Z,6.35
2022-08-29T20:04:06.915Z,4.97
2022-08-29T20:06:47.410Z,4.57
2022-08-29T20:09:34.878Z,4.68
2022-08-29T20:12:15.273Z,5.45
2022-08-29T20:15:01.853Z,4.28
2022-08-29T20:17:43.353Z,4.88
2022-08-29T20:20:40.173Z,4.47
2022-08-29T20:23:26.863Z,5.00
2022-08-29T20:26:13.854Z,5.60
2022-08-29T20:29:01.103Z,5.28
2022-08-29T20:31:41.842Z,7.78
2022-08-29T20:34:28.864Z,7.28
2022-08-29T20:37:15.851Z,5.57
2022-08-29T20:39:56.298Z,4.97
2022-08-29T20:42:42.857Z,4.90
2022-08-29T20:45:24.159Z,6.20
2022-08-29T20:48:10.824Z,6.43
2022-08-29T20:51:01.694Z,5.45
2022-08-29T20:53:49.771Z,5.43
2022-08-29T20:56:36.823Z,5.35
2022-08-29T20:59:17.937Z,9.73
2022-08-29T21:02:05.844Z,6.22
2022-08-29T21:05:04.634Z,5.82
2022-08-29T21:07:51.810Z,5.60
2022-08-29T21:10:38.779Z,4.97
2022-08-29T21:13:26.746Z,4.75
2022-08-29T21:16:08.294Z,5.50
2022-08-29T21:18:57.775Z,5.53
2022-08-29T21:21:44.804Z,6.20
2022-08-29T21:24:26.570Z,6.35
2022-08-29T21:27:13.797Z,11.82
2022-08-29T21:29:57.277Z,13.45
2022-08-29T21:32:43.804Z,13.77
2022-08-29T21:35:30.848Z,17.13
2022-08-29T21:38:17.773Z,12.10
2022-08-29T21:40:58.785Z,7.53
2022-08-29T21:43:45.763Z,6.65
2022-08-29T21:46:38.811Z,6.25
2022-08-29T21:49:23.160Z,6.22
2022-08-29T21:54:56.755Z,6.35
2022-08-29T21:57:58.766Z,6.25
2022-08-29T22:00:45.192Z,6.47
2022-08-29T22:03:31.762Z,10.43
2022-08-29T22:06:19.727Z,9.88
2022-08-29T22:09:07.975Z,8.75
2022-08-29T22:11:52.870Z,8.27
2022-08-29T22:14:58.735Z,7.28
2022-08-29T22:17:39.333Z,7.55
2022-08-29T22:20:26.732Z,7.15
2022-08-29T22:23:06.907Z,6.68
2022-08-29T22:25:53.715Z,6.40
2022-08-29T22:28:47.740Z,6.40
2022-08-29T22:31:34.735Z,5.97
2022-08-29T22:34:14.854Z,7.22
2022-08-29T22:37:02.697Z,7.13
2022-08-29T22:39:42.855Z,5.95
2022-08-29T22:42:30.695Z,6.43
2022-08-29T22:45:19.698Z,5.97
2022-08-29T22:48:06.700Z,6.65
2022-08-29T22:50:52.002Z,6.18
2022-08-29T22:53:45.690Z,5.78
2022-08-29T22:56:25.974Z,6.80
2022-08-29T22:59:13.705Z,5.47
2022-08-29T23:01:53.809Z,5.97
2022-08-29T23:04:42.664Z,5.95
2022-08-29T23:07:23.777Z,6.55
2022-08-29T23:10:12.677Z,5.85
2022-08-29T23:12:59.649Z,5.90
2022-08-29T23:15:40.153Z,5.25
2022-08-29T23:18:26.689Z,6.18
2022-08-29T23:21:13.626Z,6.22
2022-08-29T23:24:00.649Z,5.60
2022-08-29T23:26:49.648Z,5.68
2022-08-29T23:29:41.870Z,5.90
2022-08-29T23:32:22.339Z,5.55
2022-08-29T23:35:08.627Z,6.75
2022-08-29T23:37:55.650Z,6.03
2022-08-29T23:40:35.875Z,5.80
2022-08-29T23:43:23.679Z,6.85
2022-08-29T23:46:11.759Z,7.32
2022-08-29T23:48:52.077Z,7.53
2022-08-29T23:51:38.660Z,5.95
2022-08-29T23:54:25.646Z,5.85
2022-08-29T23:57:05.708Z,6.05
